Miller Field
KVTN : now visible

Airfield :











YOU CAN JOIN US ON...

 
LOGIN :

Register | Disclaimer

   EN    FR    IT 

 









Legend :    VFR   Marginal VFR   IFR   Intensive IFR   Very Intensive IFR
Visi :
Ceiling :
>= 8 km
>= 3000ft
5 to 8 km
1000 to 3000 ft
1500m to 5 km
500 to 1000 ft
800 to 1500m
200 to 500 ft
< 800m
< 200 ft
Symbols :   Thunderstorms  Fog  Heavy snow  Heavy precipitations  Wind > 20 kt






- Airport Elevation : 2596 ft


KVTN - Miller Field

CURRENT METAR :
  • 110852Z AUTO 19011KT 10SM CLR 18/12 A2998 RMK AO2 SLP132 T01830122 56012 $

EXPIRED METARs :
  • 110752Z AUTO 18010KT 10SM CLR 18/12 A2999 RMK AO2 SLP135 T01830122 $
  • 110652Z AUTO 17010G19KT 10SM CLR 19/12 A3000 RMK AO2 SLP141 T01890117 $

TAF KVTN
Valid from the 11 at 06:00 until the 12 at 06:00 UTC


110520Z 1106/1206 17006KT P6SM SKC
FM111500 17011KT P6SM SCT200
KZDV FIR / North America



MET'MAP, your aeronautical weather chart ! - Copyright ORBIFLY December 2007 - Disclaimer

ORBIFLY MET'MAP TEAM :

Programming & Development : Alexandra Zaïnal
Concept & original design : Baudouin d'Aumeries
Assistance for programming : Marc-Olivier Méhu
Technical & hardware support : Manuel Goepfert

Contact : metmap@orbifly.com




SOURCES & CREDITS :

   NOAA       Earth
Advisory